Time;durP1;ratioP1;P1;durP2;ratioP2;P2;SDS_P1;SDS_P2;PMS_P1;PMS_P2;Temp;Humidity;BMP_temperature;BMP_pressure;BME280_temperature;BME280_humidity;BME280_pressure;Samples;Min_cycle;Max_cycle;Signal;HPM_P1;HPM_P2
2023/01/03 00:01:48;;;;;;;12.90;9.80;;;7.50;1.00;;;;;;5058365;28;20781;-65
2023/01/03 00:04:15;;;;;;;15.93;10.83;;;7.50;1.00;;;;;;5058194;28;20467;-65
2023/01/03 00:06:45;;;;;;;14.50;10.13;;;7.50;8.50;;;;;;5057371;28;20468;-65
2023/01/03 00:09:14;;;;;;;13.37;9.83;;;7.50;50.10;;;;;;5056996;28;20554;-65
2023/01/03 00:14:32;;;;;;;11.20;9.83;;;7.50;1.00;;;;;;5058591;28;20437;-65
2023/01/03 00:17:01;;;;;;;11.30;9.00;;;7.50;1.00;;;;;;5057738;28;20469;-65
2023/01/03 00:19:30;;;;;;;11.70;9.17;;;7.50;1.00;;;;;;5058115;28;20894;-65
2023/01/03 00:21:58;;;;;;;13.77;9.80;;;7.60;1.00;;;;;;5057689;28;20466;-65
2023/01/03 00:24:25;;;;;;;17.20;8.40;;;7.50;99.90;;;;;;5058338;28;20476;-65
2023/01/03 00:26:53;;;;;;;15.17;8.83;;;7.50;99.90;;;;;;5058097;28;20473;-65
2023/01/03 00:29:20;;;;;;;14.73;9.07;;;7.40;99.90;;;;;;5056853;28;20466;-65
2023/01/03 00:31:48;;;;;;;10.77;8.73;;;7.30;99.90;;;;;;5057488;28;20433;-65
2023/01/03 00:34:15;;;;;;;11.87;7.80;;;7.30;99.90;;;;;;5056923;28;21009;-65
2023/01/03 00:36:44;;;;;;;14.13;9.00;;;7.20;99.90;;;;;;5058117;28;20459;-65
2023/01/03 00:39:11;;;;;;;11.00;8.00;;;7.20;1.00;;;;;;5057536;28;20557;-65
2023/01/03 00:41:39;;;;;;;10.67;8.27;;;7.20;99.90;;;;;;5057455;28;20516;-65
2023/01/03 00:44:08;;;;;;;11.50;8.00;;;7.10;1.00;;;;;;5057239;28;20866;-65
2023/01/03 00:46:37;;;;;;;10.77;8.17;;;7.10;1.00;;;;;;5057987;28;20905;-65
2023/01/03 00:49:06;;;;;;;11.40;7.70;;;7.20;99.90;;;;;;5057720;28;20459;-65
2023/01/03 00:51:35;;;;;;;8.57;7.50;;;7.10;99.90;;;;;;5057438;28;20764;-65
2023/01/03 00:54:05;;;;;;;13.33;6.87;;;7.20;99.90;;;;;;5057161;28;20453;-65
2023/01/03 00:56:35;;;;;;;8.23;6.57;;;7.10;1.00;;;;;;5057688;28;20537;-65
2023/01/03 00:59:02;;;;;;;8.93;6.87;;;7.10;1.00;;;;;;5056895;28;20458;-65
2023/01/03 01:01:34;;;;;;;9.20;6.60;;;7.00;1.00;;;;;;5056956;28;20436;-65
2023/01/03 01:04:05;;;;;;;11.60;7.73;;;7.10;99.90;;;;;;5056377;28;20458;-65
2023/01/03 01:06:36;;;;;;;9.07;7.00;;;7.10;5.90;;;;;;5057523;28;20506;-65
2023/01/03 01:09:06;;;;;;;10.10;8.00;;;7.10;1.00;;;;;;5056954;28;20466;-65
2023/01/03 01:11:36;;;;;;;12.17;7.60;;;7.10;1.00;;;;;;5057310;28;20520;-65
2023/01/03 01:14:03;;;;;;;12.57;7.40;;;7.10;1.00;;;;;;5057428;28;20512;-65
2023/01/03 01:16:34;;;;;;;11.50;6.83;;;7.20;1.00;;;;;;5057401;28;20763;-65
2023/01/03 01:19:01;;;;;;;10.30;6.67;;;7.10;99.90;;;;;;5056779;28;20469;-65
2023/01/03 01:21:30;;;;;;;12.87;7.30;;;7.10;1.00;;;;;;5056885;28;20469;-65
2023/01/03 01:23:58;;;;;;;8.97;6.50;;;7.00;1.00;;;;;;5055581;28;20549;-65
2023/01/03 01:26:26;;;;;;;9.40;6.73;;;7.10;1.00;;;;;;5057011;28;20547;-65
2023/01/03 01:28:54;;;;;;;11.10;6.70;;;7.10;99.90;;;;;;5057212;28;20922;-65
2023/01/03 01:31:22;;;;;;;7.37;6.10;;;7.10;99.90;;;;;;5057084;28;20897;-65
2023/01/03 01:33:52;;;;;;;7.43;6.40;;;7.10;99.90;;;;;;5057069;28;20462;-65
2023/01/03 01:36:21;;;;;;;10.60;7.20;;;7.00;1.00;;;;;;5056943;28;20740;-65
2023/01/03 01:38:52;;;;;;;10.40;7.00;;;7.00;99.90;;;;;;5056218;28;20462;-65
2023/01/03 01:44:36;;;;;;;12.90;6.17;;;7.00;99.90;;;;;;5056781;28;20921;-65
2023/01/03 01:44:39;;;;;;;15.27;7.60;;;6.90;1.00;;;;;;5057119;28;20892;-65
2023/01/03 01:47:11;;;;;;;9.53;6.27;;;6.90;1.00;;;;;;5056692;28;20465;-65
2023/01/03 01:49:40;;;;;;;10.30;6.70;;;6.90;99.90;;;;;;5056669;28;20520;-65
2023/01/03 01:52:09;;;;;;;10.93;6.50;;;6.90;1.00;;;;;;5056865;28;20462;-66
2023/01/03 01:54:40;;;;;;;12.00;6.53;;;6.90;99.90;;;;;;5057295;28;20897;-65
2023/01/03 01:57:09;;;;;;;11.80;6.27;;;6.90;1.00;;;;;;5059495;28;20802;-65
2023/01/03 01:59:37;;;;;;;13.40;6.50;;;6.90;1.00;;;;;;5060748;28;20436;-65
2023/01/03 02:02:05;;;;;;;9.63;6.50;;;6.90;1.00;;;;;;5060601;28;20553;-65
2023/01/03 02:04:37;;;;;;;13.17;6.73;;;6.90;99.90;;;;;;5060711;28;20760;-65
2023/01/03 02:07:08;;;;;;;13.40;8.60;;;6.90;99.90;;;;;;5060585;28;20450;-65
2023/01/03 02:09:36;;;;;;;9.90;6.37;;;6.80;1.00;;;;;;5046869;28;20456;-65
2023/01/03 02:15:08;;;;;;;10.73;6.27;;;6.80;99.90;;;;;;5040523;28;20504;-65
2023/01/03 02:17:47;;;;;;;9.20;6.40;;;6.80;99.90;;;;;;5040468;28;20433;-65
2023/01/03 02:20:37;;;;;;;8.57;6.20;;;6.70;1.00;;;;;;5040725;28;20781;-65
2023/01/03 02:23:43;;;;;;;10.00;5.97;;;6.70;1.00;;;;;;5040360;28;20460;-66
2023/01/03 02:26:41;;;;;;;7.03;5.60;;;6.70;1.00;;;;;;5040245;28;20587;-65
2023/01/03 02:29:41;;;;;;;9.33;5.97;;;6.70;50.00;;;;;;4995920;28;20508;-65
2023/01/03 02:32:16;;;;;;;9.70;5.63;;;6.70;9.60;;;;;;5040250;28;20463;-65
2023/01/03 02:34:50;;;;;;;10.97;6.23;;;6.70;1.00;;;;;;5040413;28;20879;-66
2023/01/03 02:37:29;;;;;;;10.97;6.80;;;6.70;1.00;;;;;;5040197;28;20473;-65
2023/01/03 02:40:05;;;;;;;10.00;7.70;;;6.80;1.00;;;;;;5040018;28;20468;-65
2023/01/03 02:43:00;;;;;;;12.63;6.47;;;6.70;1.00;;;;;;5040493;28;20469;-65
2023/01/03 02:45:53;;;;;;;13.13;7.13;;;6.70;1.00;;;;;;5039639;28;20491;-65
2023/01/03 02:48:30;;;;;;;10.30;7.90;;;6.70;16.50;;;;;;5040200;28;20438;-65
2023/01/03 02:51:02;;;;;;;11.60;6.93;;;6.70;1.00;;;;;;5040340;28;20498;-65
2023/01/03 02:53:33;;;;;;;13.90;7.30;;;6.70;1.00;;;;;;5039649;28;20463;-65
2023/01/03 02:56:04;;;;;;;9.60;7.37;;;6.70;1.00;;;;;;5039590;28;20553;-65
2023/01/03 02:58:36;;;;;;;10.20;7.37;;;6.60;1.00;;;;;;5039471;28;20877;-65
2023/01/03 03:01:06;;;;;;;9.37;7.03;;;6.70;1.00;;;;;;5039196;28;20558;-65
2023/01/03 03:03:38;;;;;;;10.93;7.60;;;6.60;1.00;;;;;;5039883;28;20487;-65
2023/01/03 03:06:12;;;;;;;8.67;7.17;;;6.70;1.00;;;;;;5039774;28;20503;-65
2023/01/03 03:08:40;;;;;;;10.07;7.70;;;6.70;1.00;;;;;;5039221;28;20757;-65
2023/01/03 03:13:55;;;;;;;11.10;7.63;;;6.70;1.00;;;;;;5039171;28;20442;-65
2023/01/03 03:24:48;;;;;;;11.20;8.30;;;6.70;99.90;;;;;;5038175;28;20475;-65
2023/01/03 03:25:02;;;;;;;9.87;7.63;;;6.70;99.90;;;;;;5039385;28;20427;-65
2023/01/03 03:30:20;;;;;;;9.30;7.20;;;6.60;1.00;;;;;;5038093;28;20442;-66
2023/01/03 03:32:52;;;;;;;10.47;8.40;;;6.60;1.00;;;;;;5039193;28;20463;-65
2023/01/03 03:35:24;;;;;;;19.00;10.03;;;6.60;1.00;;;;;;5038886;28;20465;-65
2023/01/03 03:37:56;;;;;;;15.37;8.00;;;6.60;1.00;;;;;;5038856;28;20897;-66
2023/01/03 03:46:07;;;;;;;11.70;8.07;;;6.60;1.00;;;;;;5038580;28;20528;-66
2023/01/03 03:51:29;;;;;;;10.63;8.47;;;6.60;1.00;;;;;;5005677;28;20431;-66
2023/01/03 03:54:00;;;;;;;12.77;8.70;;;6.50;1.00;;;;;;5039037;28;20473;-66
2023/01/03 03:56:30;;;;;;;11.57;8.40;;;6.50;1.00;;;;;;5039191;28;20809;-66
2023/01/03 03:59:02;;;;;;;18.13;9.40;;;6.50;1.00;;;;;;5038145;28;20453;-66
2023/01/03 04:01:31;;;;;;;12.03;8.93;;;6.40;99.90;;;;;;5038265;28;20463;-66
2023/01/03 04:04:03;;;;;;;11.27;8.10;;;6.40;99.90;;;;;;5038339;28;20922;-66
2023/01/03 04:06:35;;;;;;;9.63;8.27;;;6.40;99.90;;;;;;5038346;28;20503;-66
2023/01/03 04:09:03;;;;;;;12.97;8.87;;;6.40;99.90;;;;;;5037999;28;20517;-66
2023/01/03 04:11:31;;;;;;;12.03;8.20;;;6.40;99.90;;;;;;5038542;28;20897;-66
2023/01/03 04:13:58;;;;;;;27.33;10.07;;;6.40;99.90;;;;;;5038514;28;20463;-66
2023/01/03 04:16:25;;;;;;;10.40;8.63;;;6.40;99.90;;;;;;5038489;28;20513;-66
2023/01/03 04:18:52;;;;;;;10.00;7.43;;;6.40;99.90;;;;;;5037753;28;20954;-66
2023/01/03 04:21:19;;;;;;;15.37;8.20;;;6.40;99.90;;;;;;5038792;28;20498;-66
2023/01/03 04:23:48;;;;;;;11.80;8.13;;;6.40;99.90;;;;;;5023407;28;20520;-66
2023/01/03 04:26:15;;;;;;;11.23;8.60;;;6.40;99.90;;;;;;5018538;28;20495;-66
2023/01/03 04:28:42;;;;;;;12.30;7.80;;;6.40;99.90;;;;;;5018117;28;20916;-66
2023/01/03 04:31:10;;;;;;;10.80;8.07;;;6.40;99.90;;;;;;5017068;28;20470;-66
2023/01/03 04:33:37;;;;;;;10.00;6.93;;;6.40;99.90;;;;;;5018106;28;20935;-66
2023/01/03 04:36:04;;;;;;;10.00;7.20;;;6.30;99.90;;;;;;5018513;28;20897;-66
2023/01/03 04:38:31;;;;;;;11.60;6.60;;;6.30;99.90;;;;;;5018286;28;20468;-66
2023/01/03 04:41:05;;;;;;;10.80;7.33;;;6.40;99.90;;;;;;5018056;28;20468;-66
2023/01/03 04:46:17;;;;;;;10.80;7.60;;;6.30;99.90;;;;;;5017755;28;21003;-65
2023/01/03 04:48:44;;;;;;;10.93;7.20;;;6.30;99.90;;;;;;5018083;28;20464;-65
2023/01/03 04:51:11;;;;;;;12.50;6.83;;;6.30;99.90;;;;;;5017801;28;20949;-66
2023/01/03 04:53:39;;;;;;;13.97;7.47;;;6.30;99.90;;;;;;5017877;28;20559;-65
2023/01/03 04:56:08;;;;;;;11.60;7.63;;;6.20;99.90;;;;;;5017990;28;20471;-65
2023/01/03 04:58:35;;;;;;;16.67;6.97;;;6.20;1.00;;;;;;5018174;28;20492;-66
2023/01/03 05:01:06;;;;;;;10.73;7.77;;;6.20;1.00;;;;;;5017172;28;20461;-65
2023/01/03 05:03:34;;;;;;;10.00;7.00;;;6.20;1.00;;;;;;5017705;28;20472;-66
2023/01/03 05:06:01;;;;;;;15.53;7.80;;;6.20;1.00;;;;;;5017667;28;20602;-65
2023/01/03 05:08:29;;;;;;;13.80;8.67;;;6.10;1.00;;;;;;5018128;28;20490;-65
2023/01/03 05:10:56;;;;;;;16.37;7.67;;;6.10;44.90;;;;;;5017486;28;20468;-65
2023/01/03 05:13:24;;;;;;;10.70;6.60;;;6.00;13.90;;;;;;5017494;28;20463;-66
2023/01/03 05:15:52;;;;;;;8.13;6.23;;;5.90;99.90;;;;;;5017547;28;20538;-65
2023/01/03 05:18:19;;;;;;;10.93;6.70;;;5.90;99.90;;;;;;5017765;28;20474;-66
2023/01/03 05:26:20;;;;;;;8.80;6.87;;;5.70;99.90;;;;;;5017325;28;20491;-65
2023/01/03 05:28:52;;;;;;;13.90;6.80;;;5.70;99.90;;;;;;5017409;28;20480;-66
2023/01/03 05:31:20;;;;;;;10.30;6.33;;;5.70;1.00;;;;;;5016450;28;20470;-65
2023/01/03 05:33:47;;;;;;;11.03;5.73;;;5.60;1.00;;;;;;5017049;28;20474;-65
2023/01/03 05:36:15;;;;;;;12.60;6.20;;;5.50;99.90;;;;;;5017526;28;20757;-66
2023/01/03 05:38:42;;;;;;;12.80;7.73;;;5.50;1.00;;;;;;5017328;28;20752;-66
2023/01/03 05:41:10;;;;;;;12.20;5.97;;;5.40;56.80;;;;;;5016977;28;20464;-66
2023/01/03 05:43:37;;;;;;;14.03;6.30;;;5.50;99.90;;;;;;5017404;28;20568;-66
2023/01/03 05:46:06;;;;;;;11.53;6.07;;;5.40;99.90;;;;;;5017370;28;20498;-66
2023/01/03 05:48:33;;;;;;;12.73;7.13;;;5.50;99.90;;;;;;5017813;28;20443;-66
2023/01/03 05:51:00;;;;;;;10.20;6.83;;;5.50;1.00;;;;;;5016776;28;20470;-66
2023/01/03 05:53:27;;;;;;;9.97;6.87;;;5.50;7.30;;;;;;5017276;28;20463;-66
2023/01/03 05:55:54;;;;;;;16.13;7.67;;;5.50;99.90;;;;;;5017104;28;20468;-66
2023/01/03 05:58:21;;;;;;;8.73;6.37;;;5.60;99.90;;;;;;5017377;28;20860;-66
2023/01/03 06:00:49;;;;;;;10.20;6.93;;;5.60;99.90;;;;;;5015069;28;20474;-66
2023/01/03 06:03:18;;;;;;;15.97;6.43;;;5.60;1.00;;;;;;5015162;28;20495;-66
2023/01/03 06:05:45;;;;;;;11.67;6.80;;;5.60;1.00;;;;;;5017024;28;20932;-66
2023/01/03 06:08:12;;;;;;;8.50;5.87;;;5.60;1.00;;;;;;5016484;28;20468;-66
2023/01/03 06:10:40;;;;;;;10.10;6.33;;;5.70;1.00;;;;;;5017187;28;20459;-66
2023/01/03 06:13:08;;;;;;;8.43;6.47;;;5.70;1.00;;;;;;5016092;28;20476;-66
2023/01/03 06:15:35;;;;;;;8.70;6.70;;;5.70;1.00;;;;;;5016854;28;20871;-66
2023/01/03 06:18:01;;;;;;;14.03;7.50;;;5.60;99.90;;;;;;5016955;28;20798;-66
2023/01/03 06:20:30;;;;;;;7.90;6.20;;;5.60;99.90;;;;;;5015679;28;20896;-66
2023/01/03 06:22:57;;;;;;;9.90;6.50;;;5.60;1.00;;;;;;5017230;28;20839;-66
2023/01/03 06:25:25;;;;;;;12.57;6.97;;;5.70;1.00;;;;;;5016790;28;20727;-66
2023/01/03 06:27:52;;;;;;;12.17;7.60;;;5.70;1.00;;;;;;5016770;28;20824;-66
2023/01/03 06:30:20;;;;;;;8.90;7.10;;;5.70;1.00;;;;;;5017182;28;20771;-66
2023/01/03 06:32:47;;;;;;;10.33;6.53;;;5.70;1.00;;;;;;5016982;28;20885;-66
2023/01/03 06:35:14;;;;;;;9.57;7.00;;;5.70;1.00;;;;;;5016213;28;20463;-66
2023/01/03 06:37:46;;;;;;;9.23;6.47;;;5.70;1.00;;;;;;5016457;28;20466;-66
2023/01/03 06:40:13;;;;;;;8.47;7.17;;;5.70;1.00;;;;;;5017077;28;20470;-66
2023/01/03 06:42:41;;;;;;;10.30;6.77;;;5.70;1.00;;;;;;5018452;28;20935;-66
2023/01/03 06:53:34;;;;;;;7.20;6.40;;;5.90;99.90;;;;;;5018770;28;20442;-64
2023/01/03 06:56:01;;;;;;;8.17;6.57;;;5.80;99.90;;;;;;5020081;28;20474;-64
2023/01/03 06:58:28;;;;;;;25.53;14.60;;;5.80;99.90;;;;;;5020277;28;20571;-64
2023/01/03 07:00:57;;;;;;;15.77;8.30;;;5.90;99.90;;;;;;5020048;28;20468;-64
2023/01/03 07:03:24;;;;;;;11.20;6.97;;;6.00;99.90;;;;;;5020043;28;20780;-64
2023/01/03 07:05:52;;;;;;;8.40;6.30;;;6.00;99.90;;;;;;5019392;28;20492;-64
2023/01/03 07:08:19;;;;;;;9.37;6.43;;;6.00;99.90;;;;;;5019686;28;20502;-64
2023/01/03 07:10:48;;;;;;;12.63;5.87;;;6.00;1.00;;;;;;5019987;28;20463;-64
2023/01/03 07:16:00;;;;;;;7.57;6.00;;;6.00;1.00;;;;;;5019447;28;20951;-64
2023/01/03 07:18:27;;;;;;;9.20;6.53;;;6.00;1.00;;;;;;5019639;28;20444;-64
2023/01/03 07:20:54;;;;;;;13.97;6.43;;;6.00;1.00;;;;;;5019655;28;20479;-64
2023/01/03 07:23:21;;;;;;;12.87;6.97;;;6.10;1.00;;;;;;5019346;28;20464;-64
2023/01/03 07:25:54;;;;;;;11.30;6.27;;;6.10;1.00;;;;;;5019956;28;20468;-64
2023/01/03 07:28:21;;;;;;;10.70;7.13;;;6.20;99.90;;;;;;5019342;28;20783;-64
2023/01/03 07:30:48;;;;;;;10.30;6.80;;;6.20;99.90;;;;;;5018708;28;20470;-64
2023/01/03 07:33:16;;;;;;;9.20;6.93;;;6.30;1.00;;;;;;5019467;28;20507;-64
2023/01/03 07:35:44;;;;;;;7.87;6.40;;;6.30;1.00;;;;;;5019595;28;20471;-64
2023/01/03 07:38:12;;;;;;;10.57;6.23;;;6.30;1.00;;;;;;5019351;28;20772;-64
2023/01/03 07:40:39;;;;;;;14.30;6.73;;;6.30;99.90;;;;;;5019371;28;20460;-64
2023/01/03 07:45:54;;;;;;;9.23;5.20;;;6.30;1.00;;;;;;5018653;28;20495;-64
2023/01/03 07:48:21;;;;;;;7.63;5.30;;;6.30;86.40;;;;;;5019113;28;20532;-64
2023/01/03 07:50:48;;;;;;;8.73;5.20;;;6.30;1.00;;;;;;5019330;28;20472;-64
2023/01/03 07:53:16;;;;;;;6.60;4.93;;;6.40;99.90;;;;;;5018420;28;20463;-64
2023/01/03 07:55:45;;;;;;;9.67;5.30;;;6.40;99.90;;;;;;5019020;28;20905;-64
2023/01/03 07:58:13;;;;;;;9.13;5.70;;;6.50;1.00;;;;;;5026840;28;20459;-64
2023/01/03 08:00:41;;;;;;;6.63;5.30;;;6.60;1.00;;;;;;5038251;28;20467;-64
2023/01/03 08:03:09;;;;;;;6.90;5.23;;;6.50;99.90;;;;;;5027567;28;20548;-64
2023/01/03 08:05:37;;;;;;;8.17;5.30;;;6.60;99.90;;;;;;5019967;28;20781;-64
2023/01/03 08:08:05;;;;;;;9.27;5.03;;;6.50;1.00;;;;;;5033744;28;20561;-64
2023/01/03 08:13:18;;;;;;;9.13;5.17;;;6.60;1.00;;;;;;5017950;28;20494;-64
2023/01/03 08:15:47;;;;;;;9.23;5.30;;;6.60;99.90;;;;;;5018175;28;20469;-64
2023/01/03 08:18:15;;;;;;;6.13;5.07;;;6.60;99.90;;;;;;5036225;28;20469;-64
2023/01/03 08:20:42;;;;;;;11.13;4.83;;;6.70;99.90;;;;;;5026339;28;20889;-64
2023/01/03 08:23:10;;;;;;;11.93;5.50;;;6.60;99.90;;;;;;5034908;28;20477;-64
2023/01/03 08:25:37;;;;;;;6.60;4.87;;;6.60;99.90;;;;;;5035896;28;21068;-64
2023/01/03 08:28:06;;;;;;;5.77;4.83;;;6.70;99.90;;;;;;5031830;28;20492;-64
2023/01/03 08:30:39;;;;;;;5.90;4.77;;;6.60;99.90;;;;;;5017032;28;20468;-64
2023/01/03 08:33:09;;;;;;;6.80;5.60;;;6.70;99.90;;;;;;5024122;28;20478;-64
2023/01/03 08:35:41;;;;;;;6.37;4.67;;;6.80;99.90;;;;;;5023846;28;20468;-64
2023/01/03 08:38:12;;;;;;;9.00;4.83;;;7.00;99.90;;;;;;5034744;28;20459;-64
2023/01/03 08:40:41;;;;;;;5.87;4.60;;;7.20;99.90;;;;;;5025499;28;20445;-63
2023/01/03 08:43:09;;;;;;;7.23;3.83;;;7.40;1.00;;;;;;5016808;28;20468;-64
2023/01/03 08:45:38;;;;;;;4.77;4.20;;;7.50;1.00;;;;;;5033801;28;20466;-64
2023/01/03 08:48:07;;;;;;;4.20;3.80;;;7.60;99.90;;;;;;5030944;28;20490;-64
2023/01/03 08:50:34;;;;;;;8.43;4.07;;;7.60;99.90;;;;;;5020476;28;20875;-64
2023/01/03 08:53:03;;;;;;;9.13;5.40;;;7.60;85.90;;;;;;5029119;28;20483;-64
2023/01/03 08:55:31;;;;;;;5.77;3.90;;;7.50;21.90;;;;;;5027112;28;20570;-64
2023/01/03 08:57:59;;;;;;;9.57;4.53;;;7.40;55.20;;;;;;5030132;28;20561;-64
2023/01/03 09:00:27;;;;;;;7.63;4.23;;;7.30;99.90;;;;;;5037023;28;20463;-64
2023/01/03 09:02:58;;;;;;;6.47;4.37;;;7.40;62.50;;;;;;5035655;28;20475;-64
2023/01/03 09:05:25;;;;;;;8.50;4.40;;;7.40;77.10;;;;;;5035518;28;21013;-64
2023/01/03 09:07:54;;;;;;;9.50;5.20;;;7.40;19.60;;;;;;5030981;28;20483;-64
2023/01/03 09:10:21;;;;;;;7.03;4.17;;;7.50;45.50;;;;;;5033886;28;20471;-65
2023/01/03 09:12:48;;;;;;;13.63;6.97;;;7.50;21.30;;;;;;5024566;28;20470;-64
2023/01/03 09:15:16;;;;;;;15.83;8.23;;;7.50;21.70;;;;;;5019685;28;20790;-63
2023/01/03 09:17:44;;;;;;;8.90;5.63;;;7.40;7.30;;;;;;5033112;28;20458;-64
2023/01/03 09:20:14;;;;;;;15.00;8.80;;;7.30;19.10;;;;;;5026899;28;20463;-64
2023/01/03 09:22:42;;;;;;;25.50;13.90;;;7.40;51.60;;;;;;5024115;28;20440;-64
2023/01/03 09:25:09;;;;;;;15.77;7.17;;;7.40;33.80;;;;;;5023973;28;20817;-64
2023/01/03 09:27:37;;;;;;;15.80;7.20;;;7.50;28.80;;;;;;5032167;28;20487;-64
2023/01/03 09:30:04;;;;;;;11.10;6.03;;;7.50;11.90;;;;;;5030900;28;20478;-64
2023/01/03 09:32:32;;;;;;;7.27;5.70;;;7.50;6.50;;;;;;5036354;28;20467;-64
2023/01/03 09:34:59;;;;;;;24.17;13.50;;;7.60;5.60;;;;;;5036868;28;20463;-64
2023/01/03 09:37:27;;;;;;;10.90;6.97;;;7.70;23.80;;;;;;5035691;28;20477;-64
2023/01/03 09:39:54;;;;;;;11.37;7.73;;;7.80;2.70;;;;;;5036764;28;20777;-64
2023/01/03 09:45:14;;;;;;;9.23;4.60;;;7.80;1.00;;;;;;5036374;28;20509;-64
2023/01/03 09:47:43;;;;;;;6.80;4.27;;;7.80;1.00;;;;;;5036886;28;20959;-64
2023/01/03 09:50:17;;;;;;;16.07;10.90;;;7.80;1.00;;;;;;5037296;28;20467;-64
2023/01/03 10:04:23;;;;;;;15.57;7.50;;;7.90;51.10;;;;;;5036976;28;20434;-63
2023/01/03 10:07:01;;;;;;;8.87;4.30;;;7.80;99.90;;;;;;5037197;28;20487;-63
2023/01/03 10:09:39;;;;;;;9.00;5.13;;;8.00;99.90;;;;;;5037263;28;20506;-63
2023/01/03 10:12:18;;;;;;;5.13;3.57;;;8.00;20.10;;;;;;5037166;28;20561;-63
2023/01/03 10:15:00;;;;;;;6.23;4.10;;;8.10;4.00;;;;;;5037524;28;20533;-63
2023/01/03 10:17:34;;;;;;;6.07;4.20;;;8.00;1.00;;;;;;5038270;28;20751;-63
2023/01/03 10:20:18;;;;;;;6.63;3.80;;;8.00;1.00;;;;;;5041062;28;20469;-62
2023/01/03 10:22:47;;;;;;;5.50;4.50;;;8.10;25.00;;;;;;5041515;28;20833;-64
2023/01/03 10:25:20;;;;;;;5.10;4.10;;;8.00;99.90;;;;;;5040611;28;20462;-66
2023/01/03 10:27:50;;;;;;;6.27;4.87;;;8.00;99.90;;;;;;5040526;28;20812;-65
2023/01/03 10:30:20;;;;;;;5.63;3.80;;;8.10;99.90;;;;;;5040095;28;20463;-64
2023/01/03 10:33:15;;;;;;;6.13;4.17;;;8.10;99.90;;;;;;5041063;28;20468;-64
2023/01/03 10:35:42;;;;;;;5.77;3.50;;;8.10;99.90;;;;;;5040837;28;20758;-64
2023/01/03 10:38:09;;;;;;;6.87;4.40;;;8.10;99.90;;;;;;5040852;28;20473;-64
2023/01/03 10:40:43;;;;;;;5.07;3.70;;;8.20;99.90;;;;;;5041240;28;20565;-64
2023/01/03 10:43:16;;;;;;;6.93;3.53;;;8.30;99.90;;;;;;5040379;28;20800;-63
2023/01/03 10:45:55;;;;;;;4.40;3.70;;;8.40;99.90;;;;;;5040521;28;20470;-63
2023/01/03 10:48:22;;;;;;;6.40;3.60;;;8.40;99.90;;;;;;5040272;28;20462;-64
2023/01/03 10:50:52;;;;;;;5.17;3.20;;;8.40;99.90;;;;;;5040551;28;20463;-63
2023/01/03 10:53:22;;;;;;;4.83;3.70;;;8.30;99.90;;;;;;5040179;28;20885;-62
2023/01/03 10:55:54;;;;;;;7.87;4.07;;;8.20;91.40;;;;;;5040659;28;20763;-63
2023/01/03 10:58:23;;;;;;;7.63;3.70;;;8.30;99.90;;;;;;5040365;28;20558;-63
2023/01/03 11:00:52;;;;;;;5.73;4.00;;;8.30;99.90;;;;;;5040151;28;20459;-63
2023/01/03 11:03:21;;;;;;;5.60;4.03;;;8.50;99.90;;;;;;5039634;28;20467;-63
2023/01/03 11:06:06;;;;;;;6.83;3.37;;;8.80;99.90;;;;;;5039859;28;20483;-63
2023/01/03 11:08:41;;;;;;;6.00;3.10;;;9.30;3.10;;;;;;5038292;28;20951;-63
2023/01/03 11:11:27;;;;;;;7.33;3.90;;;9.90;1.00;;;;;;5038058;28;20487;-63
2023/01/03 11:14:10;;;;;;;7.13;3.10;;;10.30;1.00;;;;;;5037952;28;20463;-63
2023/01/03 11:16:38;;;;;;;8.50;3.53;;;10.20;1.00;;;;;;5038477;28;20500;-63
2023/01/03 11:19:06;;;;;;;4.27;3.53;;;10.10;1.00;;;;;;5037638;28;20451;-63
2023/01/03 11:21:42;;;;;;;6.90;3.33;;;10.00;1.00;;;;;;5036334;28;20459;-63
2023/01/03 11:24:20;;;;;;;3.93;2.97;;;9.90;1.00;;;;;;5022970;28;20951;-64
2023/01/03 11:26:53;;;;;;;4.50;3.00;;;9.70;1.00;;;;;;5027177;28;20451;-63
2023/01/03 11:29:56;;;;;;;6.87;3.43;;;9.60;1.00;;;;;;5026256;28;20490;-63
2023/01/03 11:32:41;;;;;;;6.27;3.40;;;9.40;1.00;;;;;;4980699;28;20467;-62
2023/01/03 11:35:29;;;;;;;6.10;3.63;;;9.40;1.00;;;;;;5017033;28;20456;-63
2023/01/03 11:38:03;;;;;;;8.03;3.03;;;9.30;1.00;;;;;;5027269;28;20467;-62
2023/01/03 11:40:43;;;;;;;4.10;2.70;;;9.50;1.00;;;;;;5026195;28;20452;-63
2023/01/03 11:43:30;;;;;;;5.80;2.90;;;9.50;1.00;;;;;;5025629;28;20745;-63
2023/01/03 11:46:16;;;;;;;5.07;3.37;;;9.50;1.00;;;;;;5026380;28;20554;-63
2023/01/03 11:49:11;;;;;;;7.10;3.03;;;9.30;1.00;;;;;;5027045;28;21092;-63
2023/01/03 11:51:48;;;;;;;6.10;3.30;;;9.10;1.00;;;;;;5026511;28;20463;-64
2023/01/03 11:54:43;;;;;;;4.80;3.20;;;9.00;1.00;;;;;;5026503;28;20451;-63
2023/01/03 11:57:27;;;;;;;5.43;3.17;;;9.00;1.00;;;;;;5020716;28;20789;-63
2023/01/03 12:00:10;;;;;;;5.20;3.43;;;9.00;1.00;;;;;;5032065;28;20463;-63
2023/01/03 12:03:04;;;;;;;4.87;3.50;;;9.00;1.00;;;;;;5038121;28;20467;-63
2023/01/03 12:05:51;;;;;;;5.07;2.57;;;9.10;1.00;;;;;;5037535;28;20487;-63
2023/01/03 12:08:37;;;;;;;7.00;3.50;;;9.00;1.00;;;;;;5038060;28;20495;-63
2023/01/03 12:11:14;;;;;;;4.67;3.20;;;9.00;1.00;;;;;;5024109;28;20477;-63
2023/01/03 12:13:47;;;;;;;9.70;3.50;;;9.00;1.00;;;;;;5032387;28;20926;-63
2023/01/03 12:16:22;;;;;;;4.10;2.93;;;9.10;1.00;;;;;;5038123;28;20466;-63
2023/01/03 12:18:56;;;;;;;6.30;3.00;;;9.30;1.00;;;;;;5037793;28;20462;-63
2023/01/03 12:21:34;;;;;;;3.90;3.00;;;9.40;1.00;;;;;;5037744;28;20774;-63
2023/01/03 12:24:06;;;;;;;5.50;3.10;;;9.40;1.00;;;;;;5037463;28;20465;-63
2023/01/03 12:26:37;;;;;;;3.60;2.97;;;9.40;1.00;;;;;;5037983;28;20434;-63
2023/01/03 12:29:11;;;;;;;7.57;3.27;;;9.60;1.00;;;;;;5037542;28;20494;-63
2023/01/03 12:31:45;;;;;;;4.77;2.70;;;9.80;1.00;;;;;;5037971;28;20550;-63
2023/01/03 12:34:22;;;;;;;5.07;3.10;;;10.20;1.00;;;;;;5037928;28;20468;-63
2023/01/03 12:36:54;;;;;;;5.07;2.77;;;10.20;1.00;;;;;;5036144;28;20467;-63
2023/01/03 12:39:40;;;;;;;5.33;3.00;;;10.10;1.00;;;;;;5035429;28;20779;-63
2023/01/03 12:42:18;;;;;;;6.37;3.03;;;10.00;1.00;;;;;;5036441;28;20489;-63
2023/01/03 12:44:47;;;;;;;5.57;3.90;;;9.90;1.00;;;;;;5035963;28;20459;-63
2023/01/03 12:47:21;;;;;;;6.43;3.50;;;9.70;1.00;;;;;;5036259;28;20911;-63
2023/01/03 12:49:55;;;;;;;5.43;3.90;;;9.50;1.00;;;;;;5036366;28;20776;-63
2023/01/03 12:52:25;;;;;;;4.23;3.57;;;9.40;1.00;;;;;;5037912;28;20463;-63
2023/01/03 12:54:58;;;;;;;5.67;3.40;;;9.50;1.00;;;;;;5037711;28;20914;-63
2023/01/03 12:57:58;;;;;;;5.17;3.57;;;9.50;1.00;;;;;;5037789;28;20462;-63
2023/01/03 13:00:39;;;;;;;6.43;3.90;;;9.50;1.00;;;;;;5036555;28;20900;-63
2023/01/03 13:03:18;;;;;;;6.30;3.23;;;9.60;1.00;;;;;;5037064;28;20485;-63
2023/01/03 13:05:49;;;;;;;5.83;3.40;;;9.80;1.00;;;;;;5037396;28;20487;-63
2023/01/03 13:08:29;;;;;;;6.20;3.13;;;9.80;1.00;;;;;;5037276;28;20552;-63
2023/01/03 13:11:00;;;;;;;6.60;3.40;;;9.80;1.00;;;;;;5037711;28;20613;-63
2023/01/03 13:13:27;;;;;;;4.40;2.93;;;9.70;1.00;;;;;;5037116;28;20474;-63
2023/01/03 13:15:55;;;;;;;5.50;3.50;;;9.70;1.00;;;;;;5037267;28;20966;-63
2023/01/03 13:18:38;;;;;;;5.83;3.03;;;9.70;1.00;;;;;;5037294;28;20494;-63
2023/01/03 13:21:43;;;;;;;5.60;3.13;;;9.80;1.00;;;;;;5037000;28;20463;-63
2023/01/03 13:24:10;;;;;;;4.23;2.57;;;9.90;1.00;;;;;;5037036;28;21104;-62
2023/01/03 13:26:37;;;;;;;3.37;2.27;;;9.80;1.00;;;;;;5020021;28;20426;-63
2023/01/03 13:29:43;;;;;;;5.97;2.43;;;9.70;1.00;;;;;;5014426;28;20491;-63
2023/01/03 13:32:24;;;;;;;3.90;2.37;;;9.60;1.00;;;;;;5016899;28;20544;-63
2023/01/03 13:35:24;;;;;;;6.50;2.60;;;9.60;1.00;;;;;;5026260;28;20460;-63
2023/01/03 13:37:53;;;;;;;8.90;2.40;;;9.60;1.00;;;;;;5016542;28;20558;-62
2023/01/03 13:40:27;;;;;;;7.57;2.70;;;9.60;1.00;;;;;;5016770;28;20468;-63
2023/01/03 13:43:15;;;;;;;3.37;2.23;;;9.60;1.00;;;;;;5017388;28;20558;-62
2023/01/03 13:45:54;;;;;;;4.03;2.33;;;9.50;1.00;;;;;;5015726;28;20464;-62
2023/01/03 13:48:38;;;;;;;5.03;2.40;;;9.50;1.00;;;;;;5015480;28;20495;-62
2023/01/03 13:51:38;;;;;;;4.20;2.60;;;9.40;1.00;;;;;;5016469;28;20468;-62
2023/01/03 13:54:38;;;;;;;9.03;2.80;;;9.30;1.00;;;;;;5019760;28;20526;-62
2023/01/03 13:57:31;;;;;;;3.90;2.40;;;9.30;1.00;;;;;;5002276;28;20566;-62
2023/01/03 13:59:59;;;;;;;4.00;2.50;;;9.40;1.00;;;;;;5019434;28;20456;-61
2023/01/03 14:03:08;;;;;;;4.10;2.30;;;9.40;1.00;;;;;;5020885;28;20948;-61
2023/01/03 14:05:56;;;;;;;7.33;2.20;;;9.30;1.00;;;;;;5010588;28;20504;-62
2023/01/03 14:08:36;;;;;;;3.37;2.30;;;9.30;1.00;;;;;;5020994;28;20937;-61
2023/01/03 14:11:41;;;;;;;3.30;2.63;;;9.30;1.00;;;;;;5019774;28;20464;-61
2023/01/03 14:14:12;;;;;;;5.67;2.40;;;9.40;1.00;;;;;;5018075;28;20510;-60
2023/01/03 14:16:47;;;;;;;4.73;2.30;;;9.40;1.00;;;;;;5020741;28;20507;-62
2023/01/03 14:19:20;;;;;;;3.43;2.17;;;9.40;1.00;;;;;;5024395;28;20470;-62
2023/01/03 14:21:53;;;;;;;3.80;2.03;;;9.50;1.00;;;;;;5019925;28;20468;-61
2023/01/03 14:24:23;;;;;;;3.43;2.23;;;9.30;1.00;;;;;;5020718;28;20908;-62
2023/01/03 14:26:51;;;;;;;3.40;2.27;;;9.40;1.00;;;;;;5020973;28;20459;-61
2023/01/03 14:29:23;;;;;;;4.23;2.00;;;9.30;1.00;;;;;;5019900;28;20502;-61
2023/01/03 14:31:54;;;;;;;8.30;2.60;;;9.20;1.00;;;;;;5022382;28;20648;-61